createdAt,value
2018-08-12T00:00:36.915Z,13.99
2018-08-12T00:01:36.896Z,14.04
2018-08-12T00:02:36.879Z,14.00
2018-08-12T00:03:36.863Z,13.91
2018-08-12T00:04:36.847Z,13.85
2018-08-12T00:05:36.827Z,13.88
2018-08-12T00:06:36.811Z,13.70
2018-08-12T00:07:36.794Z,13.63
2018-08-12T00:08:36.776Z,13.57
2018-08-12T00:09:36.759Z,13.45
2018-08-12T00:10:36.749Z,13.41
2018-08-12T00:11:36.731Z,13.19
2018-08-12T00:12:36.707Z,13.19
2018-08-12T00:13:36.690Z,13.08
2018-08-12T00:14:36.681Z,13.05
2018-08-12T00:15:36.656Z,12.92
2018-08-12T00:16:36.637Z,12.93
2018-08-12T00:17:36.621Z,13.01
2018-08-12T00:18:37.055Z,13.23
2018-08-12T00:19:36.591Z,13.28
2018-08-12T00:20:36.567Z,13.36
2018-08-12T00:21:36.562Z,13.41
2018-08-12T00:22:36.534Z,13.48
2018-08-12T00:23:36.516Z,13.32
2018-08-12T00:24:36.501Z,13.39
2018-08-12T00:25:36.484Z,13.32
2018-08-12T00:26:36.462Z,13.38
2018-08-12T00:27:36.449Z,13.39
2018-08-12T00:28:36.429Z,13.39
2018-08-12T00:29:36.410Z,13.44
2018-08-12T00:30:36.394Z,13.44
2018-08-12T00:31:36.375Z,13.60
2018-08-12T00:32:36.359Z,13.44
2018-08-12T00:33:36.347Z,13.42
2018-08-12T00:34:36.325Z,13.46
2018-08-12T00:35:36.305Z,13.46
2018-08-12T00:36:36.290Z,13.55
2018-08-12T00:37:36.274Z,13.48
2018-08-12T00:38:36.257Z,13.41
2018-08-12T00:39:36.243Z,13.17
2018-08-12T00:40:36.218Z,13.08
2018-08-12T00:41:36.210Z,12.79
2018-08-12T00:42:36.187Z,12.65
2018-08-12T00:43:36.173Z,12.53
2018-08-12T00:44:36.162Z,12.50
2018-08-12T00:45:36.136Z,12.53
2018-08-12T00:46:36.117Z,12.52
2018-08-12T00:47:36.098Z,12.60
2018-08-12T00:48:36.081Z,12.70
2018-08-12T00:49:36.065Z,12.77
2018-08-12T00:50:36.049Z,12.90
2018-08-12T00:51:36.031Z,12.92
2018-08-12T00:52:36.012Z,13.04
2018-08-12T00:53:35.998Z,13.00
2018-08-12T00:54:35.986Z,13.07
2018-08-12T00:55:35.959Z,13.20
2018-08-12T00:56:35.941Z,13.26
2018-08-12T00:57:35.930Z,13.33
2018-08-12T00:58:35.908Z,13.32
2018-08-12T00:59:35.886Z,13.23
2018-08-12T01:00:35.871Z,13.11
2018-08-12T01:01:35.853Z,13.11
2018-08-12T01:02:35.835Z,13.05
2018-08-12T01:03:35.815Z,13.20
2018-08-12T01:04:35.798Z,13.26
2018-08-12T01:05:35.780Z,13.29
2018-08-12T01:06:35.767Z,13.32
2018-08-12T01:07:35.750Z,13.41
2018-08-12T01:08:35.729Z,13.51
2018-08-12T01:09:35.720Z,13.23
2018-08-12T01:10:35.697Z,13.00
2018-08-12T01:11:35.680Z,12.82
2018-08-12T01:12:35.660Z,12.70
2018-08-12T01:13:35.641Z,12.71
2018-08-12T01:14:35.629Z,12.86
2018-08-12T01:15:35.608Z,12.86
2018-08-12T01:16:35.589Z,12.93
2018-08-12T01:17:35.580Z,12.90
2018-08-12T01:18:35.554Z,13.07
2018-08-12T01:19:35.536Z,13.14
2018-08-12T01:20:35.519Z,13.22
2018-08-12T01:21:35.503Z,13.38
2018-08-12T01:22:35.485Z,13.44
2018-08-12T01:23:35.467Z,13.46
2018-08-12T01:24:35.446Z,13.59
2018-08-12T01:25:35.433Z,13.48
2018-08-12T01:26:35.412Z,13.32
2018-08-12T01:27:35.399Z,13.14
2018-08-12T01:28:35.377Z,12.79
2018-08-12T01:29:35.359Z,12.39
2018-08-12T01:30:35.340Z,12.34
2018-08-12T01:31:35.327Z,12.21
2018-08-12T01:32:35.309Z,12.13
2018-08-12T01:33:35.288Z,12.12
2018-08-12T01:34:35.272Z,12.19
2018-08-12T01:35:35.252Z,12.23
2018-08-12T01:36:35.236Z,12.32
2018-08-12T01:37:35.220Z,12.39
2018-08-12T01:38:35.209Z,12.53
2018-08-12T01:39:35.183Z,12.60
2018-08-12T01:40:35.165Z,12.70
2018-08-12T01:41:35.149Z,12.71
2018-08-12T01:42:35.139Z,12.77
2018-08-12T01:43:35.111Z,12.82
2018-08-12T01:44:35.096Z,12.96
2018-08-12T01:45:35.081Z,12.95
2018-08-12T01:46:35.061Z,13.03
2018-08-12T01:47:35.042Z,13.15
2018-08-12T01:48:35.025Z,13.08
2018-08-12T01:49:35.005Z,13.10
2018-08-12T01:50:34.989Z,13.05
2018-08-12T01:51:34.972Z,12.86
2018-08-12T01:52:34.952Z,12.83
2018-08-12T01:53:34.936Z,12.83
2018-08-12T01:54:34.921Z,12.79
2018-08-12T01:55:34.898Z,12.86
2018-08-12T01:56:34.892Z,12.92
2018-08-12T01:57:34.863Z,13.07
2018-08-12T01:58:34.847Z,13.17
2018-08-12T01:59:34.828Z,13.20
2018-08-12T02:00:34.813Z,13.26
2018-08-12T02:01:34.793Z,13.28
2018-08-12T02:02:34.775Z,13.30
2018-08-12T02:03:34.757Z,13.38
2018-08-12T02:04:34.741Z,13.38
2018-08-12T02:05:34.724Z,13.30
2018-08-12T02:06:34.714Z,13.36
2018-08-12T02:07:34.686Z,13.26
2018-08-12T02:08:34.671Z,13.29
2018-08-12T02:09:34.651Z,13.14
2018-08-12T02:10:34.634Z,12.83
2018-08-12T02:11:34.620Z,12.75
2018-08-12T02:12:34.602Z,12.62
2018-08-12T02:13:34.581Z,12.39
2018-08-12T02:14:34.566Z,12.28
2018-08-12T02:15:34.546Z,12.16
2018-08-12T02:16:34.528Z,12.24
2018-08-12T02:17:34.513Z,12.28
2018-08-12T02:18:34.492Z,12.42
2018-08-12T02:19:34.473Z,12.50
2018-08-12T02:20:34.457Z,12.72
2018-08-12T02:21:34.447Z,12.78
2018-08-12T02:22:34.426Z,12.83
2018-08-12T02:23:34.411Z,12.86
2018-08-12T02:24:34.387Z,12.90
2018-08-12T02:25:34.372Z,12.96
2018-08-12T02:26:34.351Z,12.95
2018-08-12T02:27:34.335Z,13.05
2018-08-12T02:28:34.315Z,13.00
2018-08-12T02:29:34.298Z,12.95
2018-08-12T02:30:34.282Z,12.82
2018-08-12T02:31:34.261Z,12.85
2018-08-12T02:32:34.244Z,12.52
2018-08-12T02:33:34.228Z,12.19
2018-08-12T02:34:34.208Z,11.99
2018-08-12T02:35:34.189Z,12.01
2018-08-12T02:36:34.173Z,11.90
2018-08-12T02:37:34.153Z,11.88
2018-08-12T02:38:34.137Z,11.90
2018-08-12T02:39:34.121Z,11.98
2018-08-12T02:40:34.101Z,11.83
2018-08-12T02:41:34.083Z,11.85
2018-08-12T02:42:34.065Z,11.96
2018-08-12T02:43:34.046Z,11.99
2018-08-12T02:44:34.030Z,12.14
2018-08-12T02:45:34.011Z,12.23
2018-08-12T02:46:33.995Z,12.24
2018-08-12T02:47:33.976Z,12.37
2018-08-12T02:48:33.959Z,12.50
2018-08-12T02:49:33.940Z,12.57
2018-08-12T02:50:33.929Z,12.56
2018-08-12T02:51:33.904Z,12.68
2018-08-12T02:52:33.887Z,12.70
2018-08-12T02:53:33.868Z,12.72
2018-08-12T02:54:33.851Z,12.78
2018-08-12T02:55:33.832Z,12.82
2018-08-12T02:56:33.814Z,12.89
2018-08-12T02:57:33.807Z,12.85
2018-08-12T02:58:33.779Z,12.86
2018-08-12T02:59:33.760Z,12.82
2018-08-12T03:00:33.745Z,12.70
2018-08-12T03:01:33.725Z,12.56
2018-08-12T03:02:33.707Z,12.38
2018-08-12T03:03:33.704Z,12.21
2018-08-12T03:04:33.672Z,12.10
2018-08-12T03:05:33.656Z,12.05
2018-08-12T03:06:33.648Z,11.98
2018-08-12T03:07:33.616Z,11.96
2018-08-12T03:08:33.600Z,11.83
2018-08-12T03:09:33.585Z,11.98
2018-08-12T03:10:33.569Z,11.95
2018-08-12T03:11:33.546Z,11.95
2018-08-12T03:12:33.531Z,11.88
2018-08-12T03:13:33.507Z,11.91
2018-08-12T03:14:33.488Z,11.96
2018-08-12T03:15:33.476Z,11.96
2018-08-12T03:16:33.454Z,11.96
2018-08-12T03:17:33.457Z,11.96
2018-08-12T03:18:33.418Z,11.82
2018-08-12T03:19:33.408Z,11.73
2018-08-12T03:20:33.384Z,11.57
2018-08-12T03:21:33.364Z,11.52
2018-08-12T03:22:33.372Z,11.49
2018-08-12T03:23:33.335Z,11.49
2018-08-12T03:24:33.311Z,11.51
2018-08-12T03:25:33.295Z,11.57
2018-08-12T03:26:33.276Z,11.61
2018-08-12T03:27:33.256Z,11.70
2018-08-12T03:28:33.238Z,11.75
2018-08-12T03:29:33.221Z,11.86
2018-08-12T03:30:33.201Z,11.91
2018-08-12T03:31:33.186Z,12.05
2018-08-12T03:32:33.165Z,12.07
2018-08-12T03:33:33.149Z,12.13
2018-08-12T03:34:33.129Z,12.09
2018-08-12T03:35:33.112Z,12.10
2018-08-12T03:36:33.093Z,12.17
2018-08-12T03:37:33.074Z,12.05
2018-08-12T03:38:33.068Z,12.09
2018-08-12T03:39:33.039Z,12.07
2018-08-12T03:40:33.021Z,11.98
2018-08-12T03:41:33.001Z,12.04
2018-08-12T03:42:32.986Z,12.16
2018-08-12T03:43:32.964Z,12.04
2018-08-12T03:44:32.946Z,12.12
2018-08-12T03:45:32.934Z,12.09
2018-08-12T03:46:32.911Z,12.09
2018-08-12T03:47:32.892Z,12.02
2018-08-12T03:48:32.877Z,11.91
2018-08-12T03:49:32.855Z,11.88
2018-08-12T03:50:32.840Z,11.96
2018-08-12T03:51:32.823Z,11.88
2018-08-12T03:52:32.803Z,11.88
2018-08-12T03:53:32.785Z,11.78
2018-08-12T03:54:32.766Z,11.83
2018-08-12T03:55:32.748Z,11.79
2018-08-12T03:56:32.730Z,11.83
2018-08-12T03:57:32.713Z,11.67
2018-08-12T03:58:32.695Z,11.70
2018-08-12T03:59:32.676Z,11.72
2018-08-12T04:00:32.657Z,11.80
2018-08-12T04:01:32.644Z,11.78
2018-08-12T04:02:32.622Z,11.96
2018-08-12T04:03:32.601Z,11.88
2018-08-12T04:04:32.587Z,11.96
2018-08-12T04:05:32.576Z,12.12
2018-08-12T04:06:32.548Z,12.14
2018-08-12T04:07:32.532Z,12.19
2018-08-12T04:08:32.512Z,12.35
2018-08-12T04:09:32.499Z,12.41
2018-08-12T04:10:32.478Z,12.42
2018-08-12T04:11:32.459Z,12.34
2018-08-12T04:12:32.442Z,12.35
2018-08-12T04:13:32.423Z,12.37
2018-08-12T04:14:32.403Z,12.09
2018-08-12T04:15:32.385Z,11.96
2018-08-12T04:16:32.366Z,11.58
2018-08-12T04:17:32.351Z,11.52
2018-08-12T04:18:32.362Z,11.58
2018-08-12T04:19:32.311Z,11.62
2018-08-12T04:20:32.303Z,11.70
2018-08-12T04:21:32.276Z,11.79
2018-08-12T04:22:32.260Z,11.88
2018-08-12T04:23:32.239Z,11.88
2018-08-12T04:24:32.221Z,11.99
2018-08-12T04:25:32.211Z,11.99
2018-08-12T04:26:32.191Z,11.95
2018-08-12T04:27:32.168Z,11.99
2018-08-12T04:28:32.148Z,11.99
2018-08-12T04:29:32.130Z,12.04
2018-08-12T04:30:32.113Z,12.10
2018-08-12T04:31:32.095Z,12.10
2018-08-12T04:32:32.077Z,12.13
2018-08-12T04:33:32.057Z,12.16
2018-08-12T04:34:32.040Z,12.17
2018-08-12T04:35:32.023Z,12.17
2018-08-12T04:36:32.007Z,12.23
2018-08-12T04:37:31.984Z,12.23
2018-08-12T04:38:31.966Z,12.21
2018-08-12T04:39:31.949Z,12.17
2018-08-12T04:40:31.930Z,12.23
2018-08-12T04:41:31.912Z,12.23
2018-08-12T04:42:31.900Z,12.31
2018-08-12T04:43:31.876Z,12.28
2018-08-12T04:44:31.862Z,12.31
2018-08-12T04:45:31.843Z,12.45
2018-08-12T04:46:31.822Z,12.42
2018-08-12T04:47:31.806Z,12.46
2018-08-12T04:48:31.791Z,12.42
2018-08-12T04:49:31.773Z,12.54
2018-08-12T04:50:31.749Z,12.50
2018-08-12T04:51:31.734Z,12.64
2018-08-12T04:52:31.711Z,12.60
2018-08-12T04:53:31.699Z,12.50
2018-08-12T04:54:31.678Z,12.52
2018-08-12T04:55:31.659Z,12.38
2018-08-12T04:56:31.640Z,12.31
2018-08-12T04:57:31.621Z,12.20
2018-08-12T04:58:31.605Z,12.23
2018-08-12T04:59:31.597Z,12.16
2018-08-12T05:00:31.567Z,12.17
2018-08-12T05:01:31.553Z,12.21
2018-08-12T05:02:31.534Z,12.20
2018-08-12T05:03:31.513Z,12.19
2018-08-12T05:04:31.498Z,12.20
2018-08-12T05:05:31.478Z,12.29
2018-08-12T05:06:31.464Z,12.28
2018-08-12T05:07:31.443Z,12.42
2018-08-12T05:08:31.426Z,12.52
2018-08-12T05:09:31.405Z,12.54
2018-08-12T05:10:31.389Z,12.71
2018-08-12T05:11:31.370Z,12.74
2018-08-12T05:12:31.353Z,12.79
2018-08-12T05:13:31.337Z,12.96
2018-08-12T05:14:31.315Z,13.04
2018-08-12T05:15:31.299Z,13.14
2018-08-12T05:16:31.289Z,13.19
2018-08-12T05:17:31.262Z,13.26
2018-08-12T05:18:31.247Z,13.28
2018-08-12T05:19:31.224Z,13.45
2018-08-12T05:20:31.210Z,13.46
2018-08-12T05:21:31.194Z,13.57
2018-08-12T05:22:31.173Z,13.66
2018-08-12T05:23:31.154Z,13.81
2018-08-12T05:24:31.140Z,13.79
2018-08-12T05:25:31.119Z,13.99
2018-08-12T05:26:31.100Z,14.06
2018-08-12T05:27:31.086Z,14.04
2018-08-12T05:28:31.065Z,14.17
2018-08-12T05:29:31.047Z,14.15
2018-08-12T05:30:31.029Z,14.24
2018-08-12T05:31:31.010Z,14.33
2018-08-12T05:32:30.991Z,14.32
2018-08-12T05:33:30.978Z,14.36
2018-08-12T05:34:30.960Z,14.45
2018-08-12T05:35:30.940Z,14.51
2018-08-12T05:36:30.921Z,14.47
2018-08-12T05:37:30.907Z,14.58
2018-08-12T05:38:30.887Z,14.62
2018-08-12T05:39:30.869Z,14.61
2018-08-12T05:40:30.852Z,14.72
2018-08-12T05:41:30.834Z,14.69
2018-08-12T05:42:30.820Z,14.73
2018-08-12T05:43:30.800Z,14.69
2018-08-12T05:44:30.780Z,14.72
2018-08-12T05:45:30.763Z,14.72
2018-08-12T05:46:30.746Z,14.78
2018-08-12T05:47:30.727Z,14.65
2018-08-12T05:48:30.710Z,14.75
2018-08-12T05:49:30.700Z,14.78
2018-08-12T05:50:30.675Z,14.78
2018-08-12T05:51:30.793Z,14.81
2018-08-12T05:52:30.640Z,14.94
2018-08-12T05:53:30.621Z,14.98
2018-08-12T05:54:30.604Z,14.91
2018-08-12T05:55:30.585Z,14.95
2018-08-12T05:56:30.581Z,14.92
2018-08-12T05:57:30.551Z,15.07
2018-08-12T05:58:30.534Z,15.10
2018-08-12T05:59:30.515Z,15.01
2018-08-12T06:00:30.508Z,15.14
2018-08-12T06:01:30.484Z,15.13
2018-08-12T06:02:30.465Z,15.16
2018-08-12T06:03:30.446Z,15.21
2018-08-12T06:04:30.427Z,15.20
2018-08-12T06:05:30.422Z,15.25
2018-08-12T06:06:30.396Z,15.19
2018-08-12T06:07:30.380Z,15.25
2018-08-12T06:08:30.358Z,15.19
2018-08-12T06:09:30.344Z,15.28
2018-08-12T06:10:30.331Z,15.29
2018-08-12T06:11:30.318Z,15.34
2018-08-12T06:12:30.293Z,15.29
2018-08-12T06:13:30.270Z,15.39
2018-08-12T06:14:30.253Z,15.46
2018-08-12T06:15:30.299Z,15.39
2018-08-12T06:16:30.223Z,15.46
2018-08-12T06:17:30.297Z,15.53
2018-08-12T06:18:30.185Z,15.47
2018-08-12T06:19:30.168Z,15.57
2018-08-12T06:20:30.151Z,15.50
2018-08-12T06:21:30.133Z,15.60
2018-08-12T06:22:30.117Z,15.72
2018-08-12T06:23:30.096Z,15.71
2018-08-12T06:24:30.094Z,15.69
2018-08-12T06:25:30.064Z,15.71
2018-08-12T06:26:30.045Z,15.78
2018-08-12T06:27:30.027Z,15.82
2018-08-12T06:28:30.012Z,15.92
2018-08-12T06:29:29.995Z,15.94
2018-08-12T06:30:29.978Z,16.02
2018-08-12T06:31:29.986Z,16.01
2018-08-12T06:32:29.943Z,16.07
2018-08-12T06:33:29.925Z,16.14
2018-08-12T06:34:30.005Z,16.15
2018-08-12T06:35:29.888Z,16.12
2018-08-12T06:36:29.874Z,16.20
2018-08-12T06:37:29.856Z,16.12
2018-08-12T06:38:29.844Z,16.21
2018-08-12T06:39:29.826Z,16.30
2018-08-12T06:40:29.807Z,16.24
2018-08-12T06:41:29.791Z,16.33
2018-08-12T06:42:29.774Z,16.31
2018-08-12T06:43:29.758Z,16.43
2018-08-12T06:44:29.736Z,16.30
2018-08-12T06:45:29.718Z,16.35
2018-08-12T06:46:29.739Z,16.46
2018-08-12T06:47:29.684Z,16.49
2018-08-12T06:48:29.671Z,16.46
2018-08-12T06:49:29.655Z,16.49
2018-08-12T06:50:29.632Z,16.61
2018-08-12T06:51:29.617Z,16.68
2018-08-12T06:52:29.597Z,16.67
2018-08-12T06:53:29.581Z,16.71
2018-08-12T06:54:29.567Z,16.82
2018-08-12T06:55:29.544Z,16.88
2018-08-12T06:56:29.530Z,16.98
2018-08-12T06:57:29.512Z,16.89
2018-08-12T06:58:29.497Z,17.03
2018-08-12T06:59:29.476Z,17.12
2018-08-12T07:00:29.527Z,17.21
2018-08-12T07:01:29.446Z,17.16
2018-08-12T07:02:29.426Z,17.19
2018-08-12T07:03:29.409Z,17.25
2018-08-12T07:04:29.392Z,17.34
2018-08-12T07:05:29.383Z,17.46
2018-08-12T07:06:29.361Z,17.48
2018-08-12T07:07:29.341Z,17.44
2018-08-12T07:08:29.325Z,17.48
2018-08-12T07:09:29.316Z,17.51
2018-08-12T07:10:29.290Z,17.63
2018-08-12T07:11:29.272Z,17.71
2018-08-12T07:12:29.259Z,17.74
2018-08-12T07:13:29.239Z,17.86
2018-08-12T07:14:29.278Z,17.90
2018-08-12T07:15:29.208Z,17.97
2018-08-12T07:16:29.187Z,18.00
2018-08-12T07:17:29.186Z,18.10
2018-08-12T07:18:29.155Z,18.10
2018-08-12T07:19:29.137Z,18.08
2018-08-12T07:20:29.128Z,18.20
2018-08-12T07:21:29.104Z,18.29
2018-08-12T07:22:29.094Z,18.32
2018-08-12T07:23:29.070Z,18.39
2018-08-12T07:24:29.056Z,18.47
2018-08-12T07:25:29.041Z,18.58
2018-08-12T07:26:29.022Z,18.62
2018-08-12T07:27:29.007Z,18.76
2018-08-12T07:28:28.989Z,18.80
2018-08-12T07:29:28.971Z,18.92
2018-08-12T07:30:28.957Z,18.92
2018-08-12T07:31:28.938Z,19.00
2018-08-12T07:32:28.922Z,19.10
2018-08-12T07:33:28.903Z,19.18
2018-08-12T07:34:28.888Z,19.32
2018-08-12T07:35:28.872Z,19.39
2018-08-12T07:36:28.871Z,19.25
2018-08-12T07:37:28.841Z,19.28
2018-08-12T07:38:28.828Z,19.41
2018-08-12T07:39:28.811Z,19.46
2018-08-12T07:40:28.799Z,19.61
2018-08-12T07:41:28.778Z,19.58
2018-08-12T07:42:28.757Z,19.66
2018-08-12T07:43:28.742Z,19.76
2018-08-12T07:44:28.725Z,19.71
2018-08-12T07:45:28.719Z,19.78
2018-08-12T07:46:28.692Z,19.91
2018-08-12T07:47:28.676Z,19.94
2018-08-12T07:48:28.662Z,19.99
2018-08-12T07:49:28.654Z,20.03
2018-08-12T07:50:28.628Z,20.28
2018-08-12T07:51:28.612Z,20.17
2018-08-12T07:52:28.595Z,20.35
2018-08-12T07:53:28.584Z,20.35
2018-08-12T07:54:28.564Z,20.48
2018-08-12T07:55:28.609Z,20.58
2018-08-12T07:56:28.535Z,20.61
2018-08-12T07:57:28.519Z,20.69
2018-08-12T07:58:28.503Z,20.64
2018-08-12T07:59:28.492Z,20.69
2018-08-12T08:00:28.477Z,20.80
2018-08-12T08:01:28.454Z,20.74
2018-08-12T08:02:28.457Z,20.80
2018-08-12T08:03:28.425Z,20.84
2018-08-12T08:04:28.408Z,20.84
2018-08-12T08:05:28.394Z,20.99
2018-08-12T08:06:28.378Z,21.12
2018-08-12T08:07:28.364Z,21.13
2018-08-12T08:08:28.353Z,21.10
2018-08-12T08:09:28.332Z,21.31
2018-08-12T08:10:28.317Z,21.25
2018-08-12T08:11:28.309Z,21.25
2018-08-12T08:12:28.328Z,21.27
2018-08-12T08:13:28.270Z,21.43
2018-08-12T08:14:28.257Z,21.47
2018-08-12T08:15:28.239Z,21.44
2018-08-12T08:16:28.223Z,21.47
2018-08-12T08:17:28.213Z,21.43
2018-08-12T08:18:28.193Z,21.43
2018-08-12T08:19:28.196Z,21.43
2018-08-12T08:20:28.165Z,21.31
2018-08-12T08:21:28.151Z,21.42
2018-08-12T08:22:28.137Z,21.40
2018-08-12T08:23:28.118Z,21.40
2018-08-12T08:24:28.104Z,21.59
2018-08-12T08:25:28.126Z,21.68
2018-08-12T08:26:28.077Z,21.67
2018-08-12T08:27:28.061Z,21.71
2018-08-12T08:28:28.043Z,21.61
2018-08-12T08:29:28.038Z,21.65
2018-08-12T08:30:28.024Z,21.65
2018-08-12T08:31:28.049Z,21.79
2018-08-12T08:32:27.983Z,21.71
2018-08-12T08:33:27.967Z,21.79
2018-08-12T08:34:27.964Z,21.90
2018-08-12T08:35:27.940Z,21.92
2018-08-12T08:36:27.924Z,21.88
2018-08-12T08:37:27.908Z,21.91
2018-08-12T08:38:27.897Z,22.07
2018-08-12T08:39:27.881Z,22.03
2018-08-12T08:40:27.873Z,22.00
2018-08-12T08:41:27.850Z,22.02
2018-08-12T08:42:27.841Z,22.05
2018-08-12T08:43:27.827Z,22.10
2018-08-12T08:44:27.817Z,22.07
2018-08-12T08:45:27.796Z,22.12
2018-08-12T08:46:27.777Z,22.27
2018-08-12T08:47:27.765Z,22.22
2018-08-12T08:48:27.749Z,22.25
2018-08-12T08:49:27.737Z,22.25
2018-08-12T08:50:27.726Z,22.24
2018-08-12T08:51:27.704Z,22.40
2018-08-12T08:52:27.695Z,22.42
2018-08-12T08:53:27.675Z,22.37
2018-08-12T08:54:27.660Z,22.39
2018-08-12T08:55:27.648Z,22.49
2018-08-12T08:56:27.631Z,22.55
2018-08-12T08:57:27.617Z,22.62
2018-08-12T08:58:27.606Z,22.73
2018-08-12T08:59:27.592Z,22.70
2018-08-12T09:00:27.580Z,22.75
2018-08-12T09:01:27.655Z,22.92
2018-08-12T09:02:27.544Z,23.00
2018-08-12T09:03:27.534Z,23.04
2018-08-12T09:04:27.516Z,23.05
2018-08-12T09:05:27.502Z,23.04
2018-08-12T09:06:27.488Z,23.07
2018-08-12T09:07:27.475Z,23.12
2018-08-12T09:08:27.711Z,23.20
2018-08-12T09:09:27.448Z,23.16
2018-08-12T09:10:27.432Z,23.13
2018-08-12T09:11:27.419Z,23.15
2018-08-12T09:12:27.413Z,23.20
2018-08-12T09:13:27.393Z,23.23
2018-08-12T09:14:27.375Z,23.20
2018-08-12T09:15:27.369Z,23.32
2018-08-12T09:16:27.349Z,23.35
2018-08-12T09:17:27.336Z,23.38
2018-08-12T09:18:27.326Z,23.39
2018-08-12T09:19:27.309Z,23.47
2018-08-12T09:20:27.292Z,23.47
2018-08-12T09:21:27.281Z,23.43
2018-08-12T09:22:27.266Z,23.50
2018-08-12T09:23:27.255Z,23.48
2018-08-12T09:24:27.247Z,23.48
2018-08-12T09:25:27.224Z,23.54
2018-08-12T09:26:27.216Z,23.68
2018-08-12T09:27:27.195Z,23.68
2018-08-12T09:28:27.196Z,23.76
2018-08-12T09:29:27.176Z,23.70
2018-08-12T09:30:27.156Z,23.85
2018-08-12T09:31:27.146Z,23.88
2018-08-12T09:32:27.128Z,23.90
2018-08-12T09:33:27.119Z,24.10
2018-08-12T09:34:27.100Z,24.08
2018-08-12T09:35:27.087Z,23.98
2018-08-12T09:36:27.079Z,23.88
2018-08-12T09:37:27.061Z,23.91
2018-08-12T09:38:27.047Z,23.97
2018-08-12T09:39:27.038Z,23.90
2018-08-12T09:40:27.023Z,23.91
2018-08-12T09:41:27.007Z,24.05
2018-08-12T09:42:26.995Z,24.02
2018-08-12T09:43:26.980Z,24.02
2018-08-12T09:44:26.967Z,24.03
2018-08-12T09:45:26.960Z,24.12
2018-08-12T09:46:26.944Z,24.18
2018-08-12T09:47:26.924Z,24.22
2018-08-12T09:48:26.915Z,24.31
2018-08-12T09:49:26.907Z,24.21
2018-08-12T09:50:26.888Z,24.20
2018-08-12T09:51:26.929Z,24.18
2018-08-12T09:52:26.861Z,24.16
2018-08-12T09:53:26.844Z,24.15
2018-08-12T09:54:26.837Z,24.24
2018-08-12T09:55:26.820Z,24.32
2018-08-12T09:56:26.823Z,24.31
2018-08-12T09:57:26.838Z,24.42
2018-08-12T09:58:26.867Z,24.37
2018-08-12T09:59:26.772Z,24.40
2018-08-12T10:00:26.826Z,24.30
2018-08-12T10:01:26.741Z,24.20
2018-08-12T10:02:26.727Z,24.28
2018-08-12T10:03:26.713Z,24.40
2018-08-12T10:04:26.702Z,24.40
2018-08-12T10:05:26.691Z,24.35
2018-08-12T10:06:26.680Z,24.50
2018-08-12T10:07:26.676Z,24.47
2018-08-12T10:08:26.653Z,24.52
2018-08-12T10:09:26.635Z,24.53
2018-08-12T10:10:26.633Z,24.57
2018-08-12T10:11:26.611Z,24.61
2018-08-12T10:12:26.600Z,24.47
2018-08-12T10:13:26.587Z,24.60
2018-08-12T10:14:26.575Z,24.52
2018-08-12T10:15:26.583Z,24.55
2018-08-12T10:16:26.545Z,24.62
2018-08-12T10:17:26.536Z,24.69
2018-08-12T10:18:26.520Z,24.76
2018-08-12T10:19:26.513Z,24.80
2018-08-12T10:20:26.498Z,24.88
2018-08-12T10:21:26.498Z,24.83
2018-08-12T10:22:26.466Z,24.87
2018-08-12T10:23:26.465Z,24.78
2018-08-12T10:24:26.470Z,24.88
2018-08-12T10:25:26.436Z,24.90
2018-08-12T10:26:26.420Z,24.90
2018-08-12T10:27:26.404Z,24.90
2018-08-12T10:28:26.397Z,24.99
2018-08-12T10:29:26.377Z,25.02
2018-08-12T10:30:26.375Z,25.13
2018-08-12T10:31:26.359Z,25.23
2018-08-12T10:32:26.339Z,25.21
2018-08-12T10:33:26.328Z,25.36
2018-08-12T10:34:26.315Z,25.35
2018-08-12T10:35:26.305Z,25.47
2018-08-12T10:36:26.297Z,25.46
2018-08-12T10:37:26.291Z,25.42
2018-08-12T10:38:26.276Z,25.46
2018-08-12T10:39:26.248Z,25.54
2018-08-12T10:40:26.237Z,25.47
2018-08-12T10:41:26.225Z,25.57
2018-08-12T10:42:26.210Z,25.57
2018-08-12T10:43:26.213Z,25.57
2018-08-12T10:44:26.203Z,25.57
2018-08-12T10:45:26.174Z,25.55
2018-08-12T10:46:26.166Z,25.61
2018-08-12T10:47:26.152Z,25.58
2018-08-12T10:48:26.137Z,25.57
2018-08-12T10:49:26.128Z,25.55
2018-08-12T10:50:26.115Z,25.57
2018-08-12T10:51:26.103Z,25.72
2018-08-12T10:52:26.088Z,25.67
2018-08-12T10:53:26.074Z,25.77
2018-08-12T10:54:26.064Z,25.79
2018-08-12T10:55:26.052Z,25.92
2018-08-12T10:56:26.051Z,25.88
2018-08-12T10:57:26.027Z,25.80
2018-08-12T10:58:26.020Z,25.80
2018-08-12T10:59:26.088Z,25.72
2018-08-12T11:00:25.988Z,25.69
2018-08-12T11:01:25.979Z,25.62
2018-08-12T11:02:25.963Z,25.58
2018-08-12T11:03:25.953Z,25.65
2018-08-12T11:04:25.951Z,25.70
2018-08-12T11:05:25.929Z,25.76
2018-08-12T11:06:25.913Z,25.90
2018-08-12T11:07:25.951Z,25.88
2018-08-12T11:08:25.889Z,25.98
2018-08-12T11:09:25.884Z,26.09
2018-08-12T11:10:25.867Z,26.05
2018-08-12T11:11:25.852Z,26.05
2018-08-12T11:12:25.850Z,26.18
2018-08-12T11:13:25.831Z,26.07
2018-08-12T11:14:25.821Z,26.23
2018-08-12T11:15:25.807Z,26.23
2018-08-12T11:16:25.801Z,26.20
2018-08-12T11:17:25.780Z,26.35
2018-08-12T11:18:25.772Z,26.28
2018-08-12T11:19:25.757Z,26.20
2018-08-12T11:20:25.773Z,26.17
2018-08-12T11:21:25.738Z,26.26
2018-08-12T11:22:25.729Z,26.29
2018-08-12T11:23:25.706Z,26.13
2018-08-12T11:24:25.703Z,26.01
2018-08-12T11:25:25.683Z,26.12
2018-08-12T11:26:25.681Z,25.91
2018-08-12T11:27:25.658Z,25.90
2018-08-12T11:28:25.692Z,25.77
2018-08-12T11:29:25.636Z,25.76
2018-08-12T11:30:25.634Z,25.83
2018-08-12T11:31:25.609Z,25.91
2018-08-12T11:32:25.602Z,25.92
2018-08-12T11:33:25.593Z,25.94
2018-08-12T11:34:25.581Z,25.90
2018-08-12T11:35:25.562Z,25.73
2018-08-12T11:36:25.549Z,25.73
2018-08-12T11:37:25.540Z,25.79
2018-08-12T11:38:25.532Z,25.77
2018-08-12T11:39:25.535Z,25.90
2018-08-12T11:40:25.504Z,25.99
2018-08-12T11:41:25.496Z,26.10
2018-08-12T11:42:25.477Z,26.09
2018-08-12T11:43:25.473Z,26.12
2018-08-12T11:44:25.455Z,26.20
2018-08-12T11:45:25.446Z,26.18
2018-08-12T11:46:25.432Z,26.20
2018-08-12T11:47:25.454Z,26.20
2018-08-12T11:48:25.406Z,26.23
2018-08-12T11:49:25.401Z,26.26
2018-08-12T11:50:25.386Z,26.28
2018-08-12T11:51:25.376Z,26.25
2018-08-12T11:52:25.365Z,26.29
2018-08-12T11:53:25.353Z,26.26
2018-08-12T11:54:25.370Z,26.17
2018-08-12T11:55:25.340Z,26.12
2018-08-12T11:56:25.312Z,26.18
2018-08-12T11:57:25.327Z,26.18
2018-08-12T11:58:25.286Z,26.20
2018-08-12T11:59:25.277Z,26.17
2018-08-12T12:00:25.263Z,26.28
2018-08-12T12:01:25.261Z,26.30
2018-08-12T12:02:25.247Z,26.39
2018-08-12T12:03:25.238Z,26.50
2018-08-12T12:04:25.217Z,26.36
2018-08-12T12:05:25.216Z,26.40
2018-08-12T12:06:25.197Z,26.52
2018-08-12T12:07:25.182Z,26.44
2018-08-12T12:08:25.182Z,26.57
2018-08-12T12:09:25.164Z,26.66
2018-08-12T12:10:25.146Z,26.73
2018-08-12T12:11:25.132Z,26.76
2018-08-12T12:12:25.120Z,26.81
2018-08-12T12:13:25.109Z,26.80
2018-08-12T12:14:25.112Z,26.97
2018-08-12T12:15:25.093Z,26.99
2018-08-12T12:16:25.077Z,27.04
2018-08-12T12:17:25.063Z,27.09
2018-08-12T12:18:25.049Z,27.12
2018-08-12T12:19:25.057Z,27.07
2018-08-12T12:20:25.093Z,26.91
2018-08-12T12:21:25.015Z,26.80
2018-08-12T12:22:25.003Z,26.81
2018-08-12T12:23:24.990Z,26.73
2018-08-12T12:24:24.978Z,26.70
2018-08-12T12:25:24.974Z,26.77
2018-08-12T12:26:24.957Z,27.06
2018-08-12T12:27:24.946Z,27.13
2018-08-12T12:28:24.932Z,27.03
2018-08-12T12:29:24.922Z,27.10
2018-08-12T12:30:24.909Z,26.94
2018-08-12T12:31:24.908Z,26.88
2018-08-12T12:32:24.887Z,26.84
2018-08-12T12:33:24.874Z,26.81
2018-08-12T12:34:24.861Z,26.87
2018-08-12T12:35:24.906Z,27.02
2018-08-12T12:36:24.837Z,27.06
2018-08-12T12:37:24.830Z,27.00
2018-08-12T12:38:24.815Z,27.02
2018-08-12T12:39:24.803Z,27.09
2018-08-12T12:40:24.793Z,27.07
2018-08-12T12:41:24.781Z,27.22
2018-08-12T12:42:24.840Z,27.10
2018-08-12T12:43:24.771Z,27.07
2018-08-12T12:44:24.746Z,27.25
2018-08-12T12:45:24.741Z,27.09
2018-08-12T12:46:24.729Z,27.21
2018-08-12T12:47:24.722Z,27.21
2018-08-12T12:48:24.698Z,27.21
2018-08-12T12:49:24.713Z,27.10
2018-08-12T12:50:24.805Z,26.95
2018-08-12T12:51:24.665Z,26.87
2018-08-12T12:52:24.653Z,26.99